White Mountain, Alaska
Current Conditions -  °F | °C
As of 8:58 AM on Sunday 23 Nov 2014 (Local Time) from PAWM Reporting Station
Clear Clear  
Wind Chill: -3°   Ceiling: Unl
Heat Index: 12°   Visibility: 10mi
Dew Point: -5°   Wind: 13mph
Humidity: 46%   Direction: 30°NNE
Pressure: 29.56"   Gusts: 25mph
Location:  64.68°N, 163.41°W
Report Text: PAWM 231758Z AUTO 03011G22KT 10SM CLR M11/M21 A2956 RMK AO2 SLP010 T11111206 11106 21117 53004 FZRANO
Loading
Personal Weather Stations






























Interactive Weather Map New forecast layout! Learn more

10-Day Weather Forecast

Advertisements
Track Severe Weather on mobile